To NAV CANADA Home Page Login to a new session Search on AWWS site Feedback and Comments Disclaimer Vers la page française équivalente Tips FAQ What's new on the site To the Forecasts and Observations / NOTAM section To "File a Flight Plan" website Publications and other links Update of the User's profile FIC Telephone Numbers My Weather Data Folder Route Weather Data Regional Weather Data Local Weather Data To the Forecasts and Observations / NOTAM section
Request Generated 03/28/2017 at 02:20:43 UTC . Weather information available at that time is displayed.

METAR/TAF

COLD LAKE/GROUP CAPTAIN R.W. MCNAIR/AB    

METAR CYOD 280200Z 09004KT 15SM OVC097 04/M03 A2998 RMK AC8 SLP178=
METAR CYOD 280100Z 09007KT 15SM BKN070 OVC100 05/M03 A2997 RMK AC5AC3 SLP174=
METAR CYOD 280000Z 10007KT 15SM OVC074 06/M02 A2997 RMK AC8 SLP173=

TAF CYOD 272330Z 2800/2824 10008KT P6SM BKN080 OVC180
FM280300 13008KT P6SM SCT020 BKN080 TEMPO 2803/2806 P6SM -SHRA
BKN020 OVC060
FM280600 13008KT P6SM SCT005 BKN010 OVC030 TEMPO 2806/2808 3SM
-SNRA
FM280800 13008KT P6SM BKN008 OVC020 TEMPO 2808/2814 3SM -SN
PROB30 2808/2814 5SM -FZDZ BR OVC008
FM281400 15008KT P6SM SCT010 BKN020
BECMG 2819/2821 BKN025 OVC060
RMK NXT FCST BY 280300Z=
Your time UTC time
Weather data provided by Environment Canada and NAV CANADA